Terminal Aerodrome Forecast
Issued by NWS Flagstaff, AZ

Home | Current Version | Previous Version | Text Only | Print | Product List | Glossary On
Versions: 1 2 3 4 5 6 7 8 9 10 11 12 13 14 15 16 17 18 19 20 21 22 23
000
FTUS45 KFGZ 251140
TAFFLG
TAF
KFLG 251140Z 2512/2612 VRB05KT P6SM BKN045 BKN100
      TEMPO 2512/2515 6SM -SHRA BKN020 OVC030
     FM251800 23010G18KT P6SM VCSH BKN045 BKN100
      TEMPO 2520/2524 5SM -SHRA BKN035 OVC080
     FM260300 VRB03KT P6SM SCT060=

USA.gov is the U.S. government's official web portal to all federal, state and local government web resources and services.